首页
METAR-TAF:

METAR-TAF

机场 :

倫敦希斯路機場, 英格兰

纬度: 51-29N, 经度: 000-27W, 海拔: 24米

当前天气观测

该预报发布于18分钟前的14:20 UTC
风速10节,风向西
温度 15°C
湿度 59%
气压 1029 hPa
能见度10公里或以上

METAR: EGLL 231420Z AUTO 28010KT 9999 NCD 15/07 Q1029 NOSIG

时间: 15:38 (14:38 UTC)

预报

该预报发布于3小时和41分钟前的10:57 UTC
预报有效从23日的 12点(UTC)到 24日的 18点(UTC)
风速8节,风向西
能见度10公里或以上
少量云层高于1500英尺
几率 30% :
短暂存在
从 23日的 22点(UTC)到 24日的 03点(UTC)
多云层高于1000英尺
几率 40% :
短暂存在
从 24日的 03点(UTC)到 24日的 10点(UTC)
多云层高于1000英尺

TAF: EGLL 231057Z 2312/2418 28008KT 9999 FEW015 PROB30 TEMPO 2322/2403 BKN010 PROB40 TEMPO 2403/2410 BKN010

超过4000个机场的气象观测和天气预报(METAR&TAF报告)。

可查询的气象台以黄色和红色小点在地图上表示。

将鼠标移到小点上方,可查看气象台名称。

然后点击查看天气观测和预报。

如需切换地图:点击带黑十字的绿色按钮放大地图;点击带横线的绿色按钮缩小地图;或者点击绿色箭头查看邻近地区的地图。


METAR-TAF: